createdAt,value
2019-06-10T00:01:51.465Z,3.00
2019-06-10T00:04:22.163Z,2.90
2019-06-10T00:06:51.306Z,1.97
2019-06-10T00:09:21.067Z,2.47
2019-06-10T00:11:51.458Z,2.80
2019-06-10T00:14:21.260Z,2.93
2019-06-10T00:16:50.836Z,2.80
2019-06-10T00:19:21.624Z,3.10
2019-06-10T00:21:50.883Z,2.93
2019-06-10T00:24:21.031Z,2.47
2019-06-10T00:26:51.078Z,2.60
2019-06-10T00:29:22.332Z,2.47
2019-06-10T00:31:51.000Z,2.60
2019-06-10T00:34:20.872Z,2.20
2019-06-10T00:36:50.858Z,2.90
2019-06-10T00:39:22.160Z,2.80
2019-06-10T00:41:52.189Z,2.60
2019-06-10T00:44:21.285Z,3.43
2019-06-10T00:46:51.676Z,2.47
2019-06-10T00:49:21.265Z,2.70
2019-06-10T00:51:51.004Z,2.33
2019-06-10T00:54:21.884Z,2.93
2019-06-10T00:56:51.702Z,2.70
2019-06-10T00:59:22.104Z,2.97
2019-06-10T01:01:51.134Z,2.83
2019-06-10T01:04:21.624Z,2.73
2019-06-10T01:06:51.446Z,3.27
2019-06-10T01:09:21.925Z,2.80
2019-06-10T01:11:51.878Z,3.30
2019-06-10T01:14:21.527Z,2.23
2019-06-10T01:16:50.815Z,2.43
2019-06-10T01:19:21.870Z,3.27
2019-06-10T01:21:51.152Z,2.73
2019-06-10T01:24:22.383Z,2.90
2019-06-10T01:26:50.874Z,2.70
2019-06-10T01:29:20.994Z,2.83
2019-06-10T01:31:51.278Z,2.83
2019-06-10T01:34:21.730Z,3.20
2019-06-10T01:36:50.925Z,3.27
2019-06-10T01:39:22.401Z,2.30
2019-06-10T01:41:51.208Z,2.77
2019-06-10T01:44:22.124Z,2.90
2019-06-10T01:46:51.650Z,2.80
2019-06-10T01:49:21.363Z,2.53
2019-06-10T01:51:51.489Z,3.20
2019-06-10T01:54:21.276Z,2.83
2019-06-10T01:56:51.083Z,2.90
2019-06-10T01:59:22.114Z,2.93
2019-06-10T02:02:06.290Z,2.87
2019-06-10T02:04:35.254Z,2.80
2019-06-10T02:07:04.208Z,2.97
2019-06-10T02:09:33.068Z,2.50
2019-06-10T02:12:02.363Z,2.83
2019-06-10T02:14:31.894Z,2.33
2019-06-10T02:17:01.324Z,2.47
2019-06-10T02:19:31.158Z,2.20
2019-06-10T02:22:01.284Z,2.97
2019-06-10T02:24:31.582Z,2.67
2019-06-10T02:27:01.038Z,3.00
2019-06-10T02:29:30.824Z,2.80
2019-06-10T02:32:04.281Z,2.80
2019-06-10T02:34:33.383Z,2.33
2019-06-10T02:37:04.337Z,3.07
2019-06-10T02:39:37.626Z,2.43
2019-06-10T02:42:07.920Z,2.70
2019-06-10T02:44:37.738Z,3.50
2019-06-10T02:47:06.902Z,3.30
2019-06-10T02:49:56.348Z,3.83
2019-06-10T02:52:20.162Z,4.80
2019-06-10T02:54:48.715Z,4.50
2019-06-10T02:57:18.825Z,4.30
2019-06-10T02:59:48.658Z,3.87
2019-06-10T03:02:18.290Z,4.00
2019-06-10T03:04:48.137Z,4.80
2019-06-10T03:07:17.938Z,3.97
2019-06-10T03:09:46.793Z,4.87
2019-06-10T03:12:15.712Z,4.63
2019-06-10T03:14:44.526Z,4.07
2019-06-10T03:17:16.353Z,4.43
2019-06-10T03:19:50.388Z,4.60
2019-06-10T03:22:15.999Z,4.53
2019-06-10T03:24:44.871Z,4.10
2019-06-10T03:27:13.723Z,4.70
2019-06-10T03:29:42.629Z,4.00
2019-06-10T03:32:16.579Z,5.50
2019-06-10T03:34:47.239Z,4.70
2019-06-10T03:37:13.194Z,5.13
2019-06-10T03:39:42.671Z,4.83
2019-06-10T03:42:12.617Z,5.00
2019-06-10T03:44:43.048Z,5.07
2019-06-10T03:47:12.229Z,4.83
2019-06-10T03:49:49.968Z,5.30
2019-06-10T03:52:12.970Z,5.67
2019-06-10T03:54:43.283Z,4.80
2019-06-10T03:57:12.288Z,5.03
2019-06-10T03:59:42.199Z,4.80
2019-06-10T04:02:12.799Z,4.90
2019-06-10T04:04:42.946Z,5.53
2019-06-10T04:07:14.247Z,5.43
2019-06-10T04:09:42.605Z,5.63
2019-06-10T04:12:12.555Z,6.40
2019-06-10T04:14:41.962Z,5.83
2019-06-10T04:17:12.948Z,5.30
2019-06-10T04:19:42.093Z,4.73
2019-06-10T04:22:13.025Z,6.70
2019-06-10T04:24:43.152Z,5.50
2019-06-10T04:27:12.329Z,5.50
2019-06-10T04:29:42.170Z,5.50
2019-06-10T04:32:12.266Z,5.70
2019-06-10T04:34:43.337Z,5.47
2019-06-10T04:37:12.431Z,5.70
2019-06-10T04:39:42.739Z,5.37
2019-06-10T04:42:13.012Z,5.17
2019-06-10T04:44:42.379Z,6.30
2019-06-10T04:47:12.040Z,5.50
2019-06-10T04:49:42.877Z,6.20
2019-06-10T04:52:12.249Z,6.13
2019-06-10T04:54:42.122Z,6.50
2019-06-10T04:57:12.800Z,6.17
2019-06-10T04:59:42.946Z,6.00
2019-06-10T05:02:12.795Z,5.50
2019-06-10T05:04:42.656Z,5.67
2019-06-10T05:07:12.586Z,5.63
2019-06-10T05:09:42.275Z,6.67
2019-06-10T05:12:12.134Z,6.43
2019-06-10T05:14:43.143Z,6.30
2019-06-10T05:17:12.701Z,6.00
2019-06-10T05:19:42.822Z,5.80
2019-06-10T05:22:12.420Z,6.80
2019-06-10T05:24:42.402Z,6.33
2019-06-10T05:27:12.495Z,6.97
2019-06-10T05:29:42.193Z,7.07
2019-06-10T05:32:12.747Z,7.33
2019-06-10T05:34:43.720Z,7.30
2019-06-10T05:37:12.589Z,6.10
2019-06-10T05:39:42.378Z,6.97
2019-06-10T05:42:12.807Z,6.70
2019-06-10T05:44:43.081Z,6.30
2019-06-10T05:47:12.624Z,6.77
2019-06-10T05:49:43.090Z,6.73
2019-06-10T05:52:12.610Z,6.10
2019-06-10T05:54:43.105Z,6.80
2019-06-10T05:57:12.182Z,7.10
2019-06-10T05:59:43.145Z,6.90
2019-06-10T06:02:12.851Z,6.23
2019-06-10T06:04:42.800Z,7.30
2019-06-10T06:07:12.853Z,6.80
2019-06-10T06:09:42.688Z,6.80
2019-06-10T06:12:14.151Z,6.30
2019-06-10T06:14:42.650Z,6.70
2019-06-10T06:17:12.686Z,6.10
2019-06-10T06:19:43.354Z,6.40
2019-06-10T06:22:12.946Z,5.43
2019-06-10T06:24:42.752Z,6.40
2019-06-10T06:27:13.082Z,6.50
2019-06-10T06:29:43.131Z,5.90
2019-06-10T06:32:13.170Z,5.70
2019-06-10T06:34:43.145Z,6.00
2019-06-10T06:37:12.760Z,5.90
2019-06-10T06:39:42.886Z,5.50
2019-06-10T06:42:12.688Z,6.27
2019-06-10T06:44:43.328Z,5.73
2019-06-10T06:47:13.210Z,6.40
2019-06-10T06:49:42.599Z,5.40
2019-06-10T06:52:12.799Z,6.57
2019-06-10T06:54:42.462Z,6.20
2019-06-10T06:57:13.076Z,5.77
2019-06-10T06:59:43.184Z,6.23
2019-06-10T07:02:12.470Z,6.13
2019-06-10T07:04:43.305Z,5.80
2019-06-10T07:07:14.468Z,5.80
2019-06-10T07:09:46.431Z,5.80
2019-06-10T07:12:16.789Z,5.40
2019-06-10T07:14:47.489Z,5.47
2019-06-10T07:17:16.386Z,5.63
2019-06-10T07:19:45.869Z,5.70
2019-06-10T07:22:16.253Z,5.67
2019-06-10T07:24:47.593Z,4.33
2019-06-10T07:27:15.931Z,4.77
2019-06-10T07:29:47.149Z,5.00
2019-06-10T07:32:15.491Z,5.47
2019-06-10T07:34:46.792Z,5.00
2019-06-10T07:37:15.041Z,4.70
2019-06-10T07:39:45.305Z,4.50
2019-06-10T07:42:14.275Z,5.37
2019-06-10T07:44:43.979Z,5.13
2019-06-10T07:47:13.608Z,5.57
2019-06-10T07:49:44.275Z,5.77
2019-06-10T07:52:19.475Z,4.50
2019-06-10T07:54:45.253Z,5.70
2019-06-10T07:57:14.233Z,4.80
2019-06-10T07:59:45.832Z,5.37
2019-06-10T08:02:13.720Z,4.63
2019-06-10T08:04:45.540Z,5.23
2019-06-10T08:07:13.263Z,4.80
2019-06-10T08:09:44.283Z,5.10
2019-06-10T08:12:12.789Z,4.60
2019-06-10T08:14:43.655Z,4.30
2019-06-10T08:17:12.897Z,4.90
2019-06-10T08:19:48.679Z,5.80
2019-06-10T08:22:14.415Z,4.07
2019-06-10T08:24:45.206Z,4.10
2019-06-10T08:27:13.348Z,4.50
2019-06-10T08:29:46.150Z,4.30
2019-06-10T08:32:13.271Z,4.63
2019-06-10T08:34:44.646Z,4.60
2019-06-10T08:37:13.617Z,4.50
2019-06-10T08:39:44.346Z,5.37
2019-06-10T08:42:13.205Z,4.97
2019-06-10T08:44:43.953Z,5.33
2019-06-10T08:47:12.449Z,4.80
2019-06-10T08:49:44.223Z,4.77
2019-06-10T08:52:12.831Z,4.63
2019-06-10T08:54:47.204Z,5.70
2019-06-10T08:57:12.870Z,6.43
2019-06-10T08:59:44.818Z,6.07
2019-06-10T09:02:12.562Z,7.10
2019-06-10T09:04:45.588Z,8.33
2019-06-10T09:07:12.615Z,5.20
2019-06-10T09:09:45.772Z,5.30
2019-06-10T09:12:27.920Z,4.93
2019-06-10T09:14:44.026Z,4.63
2019-06-10T09:17:13.390Z,5.13
2019-06-10T09:19:46.111Z,4.40
2019-06-10T09:22:13.004Z,5.67
2019-06-10T09:24:45.130Z,5.60
2019-06-10T09:27:13.412Z,5.07
2019-06-10T09:29:47.402Z,5.00
2019-06-10T09:32:13.045Z,5.17
2019-06-10T09:34:47.137Z,4.97
2019-06-10T09:37:12.604Z,4.40
2019-06-10T09:39:48.490Z,4.80
2019-06-10T09:42:14.391Z,4.93
2019-06-10T09:44:46.767Z,5.20
2019-06-10T09:47:14.646Z,5.07
2019-06-10T09:49:46.146Z,4.70
2019-06-10T09:52:14.259Z,4.90
2019-06-10T09:54:50.035Z,4.60
2019-06-10T09:57:15.687Z,4.13
2019-06-10T09:59:49.675Z,4.43
2019-06-10T10:02:15.417Z,4.20
2019-06-10T10:04:48.893Z,4.77
2019-06-10T10:07:15.327Z,4.20
2019-06-10T10:09:49.817Z,4.80
2019-06-10T10:12:15.973Z,4.60
2019-06-10T10:14:48.049Z,5.00
2019-06-10T10:17:15.598Z,4.40
2019-06-10T10:19:47.823Z,4.73
2019-06-10T10:22:15.657Z,5.00
2019-06-10T10:24:45.585Z,6.10
2019-06-10T10:27:14.874Z,4.70
2019-06-10T10:29:46.888Z,4.40
2019-06-10T10:32:14.583Z,4.80
2019-06-10T10:34:45.248Z,5.00
2019-06-10T10:37:13.677Z,4.90
2019-06-10T10:39:42.622Z,4.80
2019-06-10T10:42:12.612Z,4.97
2019-06-10T10:44:46.215Z,5.07
2019-06-10T10:47:12.503Z,4.90
2019-06-10T10:49:42.793Z,4.80
2019-06-10T10:52:12.946Z,5.47
2019-06-10T10:54:43.206Z,5.70
2019-06-10T10:57:13.208Z,5.20
2019-06-10T10:59:43.544Z,5.90
2019-06-10T11:02:12.870Z,5.80
2019-06-10T11:04:46.200Z,6.27
2019-06-10T11:07:15.474Z,6.60
2019-06-10T11:09:45.447Z,6.57
2019-06-10T11:12:16.285Z,6.33
2019-06-10T11:14:46.912Z,6.00
2019-06-10T11:17:16.881Z,6.00
2019-06-10T11:19:45.730Z,6.23
2019-06-10T11:22:14.699Z,5.30
2019-06-10T11:24:44.907Z,6.10
2019-06-10T11:27:14.222Z,7.70
2019-06-10T11:29:43.075Z,6.63
2019-06-10T11:32:11.918Z,6.60
2019-06-10T11:34:42.884Z,6.33
2019-06-10T11:37:12.631Z,5.43
2019-06-10T11:39:41.684Z,5.17
2019-06-10T11:42:13.067Z,5.93
2019-06-10T11:44:42.539Z,5.77
2019-06-10T11:47:13.112Z,5.50
2019-06-10T11:49:43.463Z,5.67
2019-06-10T11:52:12.737Z,5.27
2019-06-10T11:54:53.894Z,5.40
2019-06-10T11:57:12.640Z,5.50
2019-06-10T11:59:43.424Z,5.40
2019-06-10T12:02:13.368Z,5.57
2019-06-10T12:04:42.331Z,4.63
2019-06-10T12:07:12.921Z,5.30
2019-06-10T12:09:42.573Z,5.53
2019-06-10T12:12:12.952Z,6.17
2019-06-10T12:14:43.158Z,5.93
2019-06-10T12:17:27.540Z,6.10
2019-06-10T12:19:45.712Z,5.13
2019-06-10T12:22:14.672Z,5.30
2019-06-10T12:24:43.647Z,5.10
2019-06-10T12:27:13.100Z,4.80
2019-06-10T12:29:42.330Z,5.40
2019-06-10T12:32:13.347Z,5.57
2019-06-10T12:34:46.045Z,6.33
2019-06-10T12:37:15.946Z,5.30
2019-06-10T12:39:44.070Z,6.07
2019-06-10T12:42:19.069Z,5.40
2019-06-10T12:44:48.502Z,5.70
2019-06-10T12:47:17.564Z,5.40
2019-06-10T12:49:48.703Z,5.63
2019-06-10T12:52:18.795Z,6.00
2019-06-10T12:54:47.816Z,6.23
2019-06-10T12:57:16.906Z,5.90
2019-06-10T12:59:45.885Z,5.10
2019-06-10T13:02:22.700Z,5.13
2019-06-10T13:04:45.906Z,5.60
2019-06-10T13:07:16.929Z,5.70
2019-06-10T13:09:46.929Z,5.90
2019-06-10T13:12:15.770Z,6.90
2019-06-10T13:14:44.675Z,5.77
2019-06-10T13:17:13.627Z,5.70
2019-06-10T13:19:46.071Z,5.47
2019-06-10T13:22:29.188Z,5.50
2019-06-10T13:24:58.646Z,5.50
2019-06-10T13:27:28.166Z,5.43
2019-06-10T13:29:57.845Z,5.10
2019-06-10T13:32:26.739Z,5.43
2019-06-10T13:34:56.470Z,5.43
2019-06-10T13:37:25.609Z,5.70
2019-06-10T13:39:59.462Z,6.13
2019-06-10T13:42:29.036Z,6.73
2019-06-10T13:44:58.263Z,6.00
2019-06-10T13:47:27.492Z,7.03
2019-06-10T13:49:58.898Z,7.40
2019-06-10T13:52:28.148Z,7.73
2019-06-10T13:54:56.985Z,8.07
2019-06-10T13:57:26.059Z,7.23
2019-06-10T13:59:54.881Z,7.40
2019-06-10T14:02:25.020Z,7.93
2019-06-10T14:04:54.689Z,7.30
2019-06-10T14:07:23.734Z,7.97
2019-06-10T14:09:52.702Z,7.57
2019-06-10T14:12:23.133Z,8.70
2019-06-10T14:15:06.084Z,7.63
2019-06-10T14:17:33.920Z,7.63
2019-06-10T14:20:03.715Z,8.40
2019-06-10T14:22:32.929Z,7.23
2019-06-10T14:25:03.337Z,7.53
2019-06-10T14:27:32.352Z,7.77
2019-06-10T14:30:02.774Z,7.53
2019-06-10T14:32:32.910Z,8.20
2019-06-10T14:35:03.442Z,7.10
2019-06-10T14:37:38.902Z,7.40
2019-06-10T14:40:05.294Z,8.10
2019-06-10T14:42:34.144Z,9.43
2019-06-10T14:45:04.448Z,15.20
2019-06-10T14:47:33.546Z,10.50
2019-06-10T14:50:03.318Z,9.23
2019-06-10T14:52:33.121Z,8.43
2019-06-10T14:55:02.622Z,7.60
2019-06-10T14:57:33.446Z,7.77
2019-06-10T15:00:03.136Z,8.47
2019-06-10T15:02:33.467Z,7.87
2019-06-10T15:05:02.875Z,7.40
2019-06-10T15:07:33.053Z,7.10
2019-06-10T15:10:03.433Z,7.10
2019-06-10T15:12:44.546Z,8.60
2019-06-10T15:15:14.347Z,7.60
2019-06-10T15:17:43.313Z,7.80
2019-06-10T15:20:13.620Z,7.77
2019-06-10T15:22:43.144Z,7.70
2019-06-10T15:25:15.232Z,7.33
2019-06-10T15:27:42.848Z,8.50
2019-06-10T15:30:20.746Z,7.70
2019-06-10T15:32:42.862Z,8.40
2019-06-10T15:35:14.157Z,7.77
2019-06-10T15:37:43.106Z,7.80
2019-06-10T15:40:14.007Z,7.37
2019-06-10T15:42:43.633Z,8.90
2019-06-10T15:45:16.276Z,8.77
2019-06-10T15:47:43.370Z,9.50
2019-06-10T15:50:13.199Z,8.07
2019-06-10T15:52:43.171Z,8.50
2019-06-10T15:55:18.123Z,9.10
2019-06-10T15:57:46.335Z,8.40
2019-06-10T16:00:21.398Z,8.70
2019-06-10T16:02:44.836Z,8.87
2019-06-10T16:05:15.755Z,8.30
2019-06-10T16:07:44.782Z,9.10
2019-06-10T16:10:18.881Z,9.27
2019-06-10T16:12:44.937Z,8.07
2019-06-10T16:15:16.151Z,9.03
2019-06-10T16:17:44.825Z,8.43
2019-06-10T16:20:14.765Z,8.47
2019-06-10T16:22:44.652Z,8.80
2019-06-10T16:25:14.366Z,8.20
2019-06-10T16:27:50.439Z,9.00
2019-06-10T16:30:14.696Z,8.50
2019-06-10T16:32:46.390Z,7.90
2019-06-10T16:35:14.801Z,8.53
2019-06-10T16:37:43.795Z,9.43
2019-06-10T16:40:13.021Z,11.87
2019-06-10T16:42:43.102Z,9.20
2019-06-10T16:45:12.922Z,9.80
2019-06-10T16:47:43.061Z,8.83
2019-06-10T16:50:13.687Z,8.33
2019-06-10T16:52:43.190Z,9.20
2019-06-10T16:55:13.082Z,8.10
2019-06-10T16:57:42.753Z,7.67
2019-06-10T17:00:14.537Z,9.20
2019-06-10T17:02:42.922Z,9.20
2019-06-10T17:05:12.141Z,8.60
2019-06-10T17:07:43.374Z,9.07
2019-06-10T17:10:12.702Z,9.90
2019-06-10T17:12:42.654Z,9.90
2019-06-10T17:15:12.997Z,10.00
2019-06-10T17:17:42.075Z,10.03
2019-06-10T17:20:13.131Z,9.43
2019-06-10T17:22:43.462Z,11.00
2019-06-10T17:25:13.031Z,9.83
2019-06-10T17:27:42.317Z,9.67
2019-06-10T17:30:13.187Z,9.90
2019-06-10T17:32:42.675Z,9.63
2019-06-10T17:35:12.641Z,10.47
2019-06-10T17:37:43.173Z,9.23
2019-06-10T17:40:12.973Z,9.23
2019-06-10T17:42:42.869Z,10.10
2019-06-10T17:45:12.808Z,9.60
2019-06-10T17:47:42.667Z,9.20
2019-06-10T17:50:12.661Z,10.23
2019-06-10T17:52:42.700Z,10.70
2019-06-10T17:55:12.586Z,9.20
2019-06-10T17:57:42.975Z,10.07
2019-06-10T18:00:14.869Z,9.80
2019-06-10T18:02:42.949Z,10.27
2019-06-10T18:05:12.825Z,9.80
2019-06-10T18:07:41.841Z,9.90
2019-06-10T18:10:13.085Z,9.37
2019-06-10T18:12:42.303Z,10.20
2019-06-10T18:15:12.533Z,10.30
2019-06-10T18:17:42.573Z,10.00
2019-06-10T18:20:13.554Z,9.73
2019-06-10T18:22:42.526Z,10.57
2019-06-10T18:25:12.311Z,9.10
2019-06-10T18:27:41.484Z,10.93
2019-06-10T18:30:14.022Z,11.67
2019-06-10T18:32:42.928Z,9.83
2019-06-10T18:35:14.262Z,9.90
2019-06-10T18:37:42.901Z,10.40
2019-06-10T18:40:14.481Z,11.43
2019-06-10T18:42:42.810Z,11.50
2019-06-10T18:45:12.976Z,10.17
2019-06-10T18:47:42.360Z,9.20
2019-06-10T18:50:12.707Z,9.37
2019-06-10T18:52:43.368Z,10.53
2019-06-10T18:55:13.720Z,9.47
2019-06-10T18:57:43.738Z,10.00
2019-06-10T19:00:14.618Z,10.20
2019-06-10T19:02:44.304Z,10.37
2019-06-10T19:05:14.982Z,9.73
2019-06-10T19:07:46.787Z,10.20
2019-06-10T19:10:16.549Z,9.13
2019-06-10T19:12:45.542Z,9.57
2019-06-10T19:15:15.044Z,9.40
2019-06-10T19:17:44.524Z,10.07
2019-06-10T19:20:14.435Z,9.60
2019-06-10T19:22:43.373Z,8.53
2019-06-10T19:25:12.825Z,9.53
2019-06-10T19:27:44.216Z,10.70
2019-06-10T19:30:13.551Z,9.77
2019-06-10T19:32:44.272Z,9.50
2019-06-10T19:35:13.611Z,10.73
2019-06-10T19:37:42.669Z,11.00
2019-06-10T19:40:12.829Z,10.13
2019-06-10T19:42:44.507Z,10.83
2019-06-10T19:45:13.721Z,10.50
2019-06-10T19:47:45.559Z,11.83
2019-06-10T19:50:14.350Z,12.03
2019-06-10T19:52:45.360Z,13.23
2019-06-10T19:55:14.657Z,15.27
2019-06-10T19:57:43.772Z,12.40
2019-06-10T20:00:13.787Z,10.07
2019-06-10T20:02:45.175Z,10.53
2019-06-10T20:05:14.499Z,11.60
2019-06-10T20:07:48.416Z,10.83
2019-06-10T20:10:14.407Z,11.17
2019-06-10T20:12:46.344Z,11.17
2019-06-10T20:15:22.698Z,10.10
2019-06-10T20:17:52.501Z,11.00
2019-06-10T20:20:23.002Z,10.87
2019-06-10T20:22:53.013Z,15.10
2019-06-10T20:25:23.529Z,12.50
2019-06-10T20:27:52.579Z,11.50
2019-06-10T20:30:28.384Z,11.00
2019-06-10T20:32:56.301Z,11.13
2019-06-10T20:35:24.604Z,12.90
2019-06-10T20:37:53.980Z,12.03
2019-06-10T20:40:23.301Z,12.20
2019-06-10T20:42:52.455Z,11.20
2019-06-10T20:45:23.168Z,10.90
2019-06-10T20:47:53.274Z,12.97
2019-06-10T20:50:23.481Z,12.13
2019-06-10T20:52:52.556Z,13.07
2019-06-10T20:55:24.809Z,12.63
2019-06-10T20:58:02.983Z,12.37
2019-06-10T21:00:34.691Z,13.10
2019-06-10T21:03:03.678Z,12.97
2019-06-10T21:05:33.492Z,13.97
2019-06-10T21:08:03.300Z,13.80
2019-06-10T21:10:37.064Z,14.70
2019-06-10T21:13:06.956Z,13.23
2019-06-10T21:15:36.044Z,16.23
2019-06-10T21:18:05.287Z,14.70
2019-06-10T21:20:34.168Z,15.87
2019-06-10T21:23:03.456Z,16.47
2019-06-10T21:25:32.776Z,15.67
2019-06-10T21:28:03.117Z,14.80
2019-06-10T21:30:40.821Z,15.67
2019-06-10T21:33:03.456Z,17.33
2019-06-10T21:35:33.674Z,16.13
2019-06-10T21:38:02.690Z,18.13
2019-06-10T21:40:33.024Z,16.77
2019-06-10T21:43:02.972Z,17.17
2019-06-10T21:45:32.591Z,15.57
2019-06-10T21:48:02.464Z,17.93
2019-06-10T21:50:33.265Z,16.70
2019-06-10T21:53:02.880Z,16.50
2019-06-10T21:55:33.187Z,16.37
2019-06-10T21:58:03.753Z,18.60
2019-06-10T22:00:55.311Z,16.63
2019-06-10T22:03:16.342Z,17.90
2019-06-10T22:05:45.839Z,17.37
2019-06-10T22:08:15.062Z,16.93
2019-06-10T22:10:44.257Z,19.83
2019-06-10T22:13:13.304Z,18.60
2019-06-10T22:15:42.651Z,18.37
2019-06-10T22:18:12.573Z,20.50
2019-06-10T22:20:42.894Z,19.47
2019-06-10T22:23:12.999Z,17.80
2019-06-10T22:25:42.065Z,19.53
2019-06-10T22:28:12.962Z,21.37
2019-06-10T22:30:43.363Z,21.60
2019-06-10T22:33:12.520Z,19.90
2019-06-10T22:35:42.507Z,22.50
2019-06-10T22:38:13.055Z,22.40
2019-06-10T22:40:42.635Z,21.77
2019-06-10T22:43:13.001Z,25.57
2019-06-10T22:45:42.591Z,26.50
2019-06-10T22:48:12.130Z,24.87
2019-06-10T22:50:43.504Z,26.07
2019-06-10T22:53:12.629Z,25.17
2019-06-10T22:55:43.225Z,27.83
2019-06-10T22:58:14.449Z,28.40
2019-06-10T23:00:43.780Z,25.37
2019-06-10T23:03:13.173Z,24.27
2019-06-10T23:05:43.359Z,25.73
2019-06-10T23:08:12.751Z,27.50
2019-06-10T23:10:42.832Z,25.90
2019-06-10T23:13:13.291Z,21.90
2019-06-10T23:15:43.086Z,22.60
2019-06-10T23:18:12.807Z,22.57
2019-06-10T23:20:42.715Z,22.03
2019-06-10T23:23:12.908Z,22.90
2019-06-10T23:25:43.012Z,24.27
2019-06-10T23:28:13.031Z,22.70
2019-06-10T23:30:42.946Z,23.67
2019-06-10T23:33:12.663Z,23.90
2019-06-10T23:35:43.058Z,24.63
2019-06-10T23:38:13.226Z,24.70
2019-06-10T23:40:43.007Z,23.80
2019-06-10T23:43:13.211Z,23.30
2019-06-10T23:45:43.079Z,23.10
2019-06-10T23:48:13.386Z,24.57
2019-06-10T23:50:43.789Z,25.00
2019-06-10T23:53:13.324Z,25.40
2019-06-10T23:55:42.716Z,26.87
2019-06-10T23:58:12.852Z,26.20
